Imperial, CA (92251)

7:06 AM PDT on September 21, 2014 (GMT -0700)
Imperial County | Change Station
CLOSE
Current Station
Airport
Location: Imperial,
Elevation: -56 ft
Nearby Weather Stations

Elev -56 ft 32.83 °N, 115.58 °W | Updated 1 hour ago

Clear
Clear
75 °F
Feels Like 75 °F
N
0
Wind Variable Wind from North

Today
High -- | Low -- °F
--% Chance of Precip.
Yesterday
High -- | Low -- °F
Precip. -- in
6:29 AM 6:40 PM
Waning Crescent, 7% visible
Pressure 29.81 in
Visibility 10.0 miles
Clouds Clear
Dew Point 50 °F
Humidity 41%
Rainfall 0.00 in
Snow Depth 0 in , 0 in , 0 in
UV 0 out of 12
Pollen 8.80 out of 12
PM2.5 Good
Flu Activity Not available.
METAR KIPL 211253Z AUTO 00000KT 10SM CLR 24/10 A2981 RMK AO2 SLP095 T02390100

More Conditions Fewer Conditions

Pressure 29.81 in
Visibility 10.0 miles
Clouds Clear
Dew Point 50 °F
Humidity 41%
Rainfall 0.00 in
Snow Depth 0 in , 0 in , 0 in
UV 0 out of 12
Pollen 8.80 out of 12
PM2.5 Good
Flu Activity Not available.
METAR KIPL 211253Z AUTO 00000KT 10SM CLR 24/10 A2981 RMK AO2 SLP095 T02390100

More Conditions Fewer Conditions

10-Day Weather Forecast

Almanac

Astronomy

Sep. 21, 2014 Rise Set
Actual Time 6:29 AM PDT 6:40 PM PDT
Civil Twilight 6:05 AM PDT 7:04 PM PDT
Nautical Twilight 5:36 AM PDT 7:33 PM PDT
Astronomical Twilight 5:07 AM PDT 8:02 PM PDT
Moon 4:13 AM PDT 5:14 PM PDT
Length of Visible Light 12h 59m
Length of Day
12h 10m
Tomorrow will be 2m 1s shorter.
Waning Crescent, 7% of the Moon is Illuminated
Today
Waning Crescent
Sep 24
New
Oct 1
First Quarter
Oct 8
Full
Oct 15
Last Quarter

Today's Extremes

State Highs State Lows

Community

WunderPhotos

Upload Photos

1,755,147 photos uploaded!

Nearby

Air Quality

  Air Quality AQ Index Pollutant
Yesterday Moderate
PM2.5
Yesterday Good
OZONE
Current Good
PM2.5
Sunday Moderate
OZONE
Monday Moderate
OZONE
Tuesday Moderate
OZONE
Wednesday Moderate
OZONE
Thursday Moderate
OZONE

Snow Depth

Station Depth Elevation
Hagan's Meadow 0 in 8000 ft
Heavenly Valley 0 in 8850 ft
Tahoe City Cross 0 in 6750 ft
Spratt Creek 1 in 6200 ft
Monitor Pass 1 in 8350 ft

Earthquake Activity

City Distance Mag. Time & Date
Aguanga, California 81 miles 2.5 1:38 AM PDT
2014-09-19
Minimum magnitude displayed is 2.5.

Coastal Water Temperatures

Place Temperature
No Stations Reporting

Nearby Weather Stations